createdAt,value
2019-01-22T00:04:50.565Z,96262.00
2019-01-22T00:09:54.701Z,96253.00
2019-01-22T00:14:59.356Z,96249.00
2019-01-22T00:20:20.370Z,96244.00
2019-01-22T00:25:25.057Z,96239.00
2019-01-22T00:30:30.809Z,96232.00
2019-01-22T00:35:33.884Z,96231.00
2019-01-22T00:40:38.477Z,96222.00
2019-01-22T00:45:43.141Z,96220.00
2019-01-22T00:50:51.320Z,96215.00
2019-01-22T00:55:54.707Z,96205.00
2019-01-22T01:00:57.587Z,96200.00
2019-01-22T01:06:04.405Z,96209.00
2019-01-22T01:11:08.604Z,96195.00
2019-01-22T01:16:16.123Z,96210.00
2019-01-22T01:21:23.276Z,96208.00
2019-01-22T01:26:27.972Z,96212.00
2019-01-22T01:31:32.460Z,96202.00
2019-01-22T01:36:53.407Z,96203.00
2019-01-22T01:42:14.792Z,96194.00
2019-01-22T01:47:18.096Z,96184.00
2019-01-22T01:52:30.650Z,96186.00
2019-01-22T01:57:35.825Z,96168.00
2019-01-22T02:02:41.942Z,96174.00
2019-01-22T02:07:45.294Z,96168.00
2019-01-22T02:13:01.355Z,96161.00
2019-01-22T02:18:28.111Z,96153.00
2019-01-22T02:24:12.078Z,96152.00
2019-01-22T02:29:21.871Z,96150.00
2019-01-22T02:35:12.115Z,96144.00
2019-01-22T02:40:40.776Z,96138.00
2019-01-22T02:46:17.662Z,96134.00
2019-01-22T02:51:57.209Z,96126.00
2019-01-22T02:58:18.402Z,96123.00
2019-01-22T03:03:57.152Z,96116.00
2019-01-22T03:09:33.537Z,96103.00
2019-01-22T03:15:02.271Z,96095.00
2019-01-22T03:20:17.713Z,96088.00
2019-01-22T03:26:03.191Z,96084.00
2019-01-22T03:31:48.873Z,96087.00
2019-01-22T03:37:49.603Z,96078.00
2019-01-22T03:43:43.991Z,96078.00
2019-01-22T03:49:29.559Z,96062.00
2019-01-22T03:55:06.042Z,96055.00
2019-01-22T04:00:22.423Z,96053.00
2019-01-22T04:05:25.718Z,96048.00
2019-01-22T04:11:02.404Z,96033.00
2019-01-22T04:16:06.016Z,96038.00
2019-01-22T04:21:13.163Z,96029.00
2019-01-22T04:27:01.305Z,96026.00
2019-01-22T04:32:10.680Z,96040.00
2019-01-22T04:37:36.908Z,96022.00
2019-01-22T04:43:17.342Z,96022.00
2019-01-22T04:49:08.058Z,96012.00
2019-01-22T04:54:51.660Z,96010.00
2019-01-22T05:00:49.383Z,96008.00
2019-01-22T05:06:31.281Z,96008.00
2019-01-22T05:12:38.475Z,96002.00
2019-01-22T05:18:14.599Z,96007.00
2019-01-22T05:23:47.797Z,96000.00
2019-01-22T05:29:16.105Z,96003.00
2019-01-22T06:18:40.662Z,95964.00
2019-01-22T07:32:13.360Z,95943.00
2019-01-22T07:38:06.256Z,95942.00
2019-01-22T15:14:37.387Z,95384.00
2019-01-22T15:19:42.359Z,95384.00
2019-01-22T15:25:09.548Z,95366.00
2019-01-22T15:30:22.635Z,95366.00
2019-01-22T15:35:45.060Z,95366.00
2019-01-22T15:40:48.822Z,95360.00
2019-01-22T15:46:10.074Z,95347.00
2019-01-22T15:51:15.059Z,95352.00
2019-01-22T15:56:37.118Z,95339.00
2019-01-22T16:01:41.795Z,95331.00
2019-01-22T16:07:02.840Z,95321.00
2019-01-22T16:12:06.601Z,95312.00
2019-01-22T16:17:27.674Z,95316.00
2019-01-22T16:22:30.435Z,95315.00
2019-01-22T16:27:53.660Z,95306.00
2019-01-22T16:33:14.614Z,95300.00
2019-01-22T16:38:35.746Z,95269.00
2019-01-22T16:43:56.840Z,95296.00
2019-01-22T16:49:20.343Z,95284.00
2019-01-22T16:54:41.095Z,95283.00
2019-01-22T16:59:46.357Z,95279.00
2019-01-22T17:05:08.636Z,95265.00
2019-01-22T17:10:16.454Z,95268.00
2019-01-22T17:15:19.659Z,95258.00
2019-01-22T17:20:29.242Z,95258.00
2019-01-22T17:25:36.574Z,95255.00
2019-01-22T17:30:42.655Z,95255.00
2019-01-22T17:35:57.042Z,95244.00
2019-01-22T17:41:09.917Z,95238.00
2019-01-22T17:46:13.491Z,95242.00
2019-01-22T17:51:22.723Z,95233.00
2019-01-22T17:56:31.057Z,95229.00
2019-01-22T18:01:36.741Z,95219.00
2019-01-22T18:06:43.324Z,95217.00
2019-01-22T18:12:04.517Z,95211.00
2019-01-22T18:17:26.491Z,95198.00
2019-01-22T18:22:29.604Z,95196.00
2019-01-22T18:27:33.630Z,95193.00
2019-01-22T18:32:46.307Z,95184.00
2019-01-22T18:37:49.153Z,95169.00
2019-01-22T18:42:52.171Z,95176.00
2019-01-22T18:47:58.069Z,95163.00
2019-01-22T18:53:08.390Z,95166.00
2019-01-22T18:58:37.507Z,95153.00
2019-01-22T19:03:49.070Z,95149.00
2019-01-22T19:09:11.677Z,95151.00
2019-01-22T19:14:32.696Z,95150.00
2019-01-22T19:19:53.892Z,95154.00
2019-01-22T19:24:56.730Z,95153.00
2019-01-22T19:29:59.930Z,95143.00
2019-01-22T19:35:21.264Z,95148.00
2019-01-22T19:40:33.822Z,95130.00
2019-01-22T19:45:37.236Z,95120.00
2019-01-22T19:50:49.210Z,95113.00
2019-01-22T19:56:13.897Z,95105.00
2019-01-22T20:01:18.270Z,95098.00
2019-01-22T20:06:39.191Z,95100.00
2019-01-22T20:11:52.119Z,95090.00
2019-01-22T20:16:54.944Z,95075.00
2019-01-22T20:22:16.480Z,95077.00
2019-01-22T20:27:30.079Z,95068.00
2019-01-22T20:32:36.505Z,95067.00
2019-01-22T20:37:58.403Z,95057.00
2019-01-22T20:43:20.127Z,95056.00
2019-01-22T20:48:22.899Z,95043.00
2019-01-22T20:53:25.682Z,95052.00
2019-01-22T20:58:28.545Z,95039.00
2019-01-22T21:03:34.304Z,95042.00
2019-01-22T21:08:37.768Z,95039.00
2019-01-22T21:13:40.671Z,95027.00
2019-01-22T21:18:44.423Z,95023.00
2019-01-22T21:24:05.630Z,95016.00
2019-01-22T21:29:09.684Z,95015.00
2019-01-22T21:34:16.243Z,95012.00
2019-01-22T21:39:20.780Z,94990.00
2019-01-22T21:44:34.779Z,94996.00
2019-01-22T21:49:40.930Z,94986.00
2019-01-22T21:54:44.419Z,94989.00
2019-01-22T21:59:49.908Z,94985.00
2019-01-22T22:05:11.155Z,94977.00
2019-01-22T22:10:18.415Z,94973.00
2019-01-22T22:15:23.048Z,94971.00
2019-01-22T22:20:31.263Z,94957.00
2019-01-22T22:25:38.410Z,94960.00
2019-01-22T22:30:42.499Z,94959.00
2019-01-22T22:36:03.551Z,94950.00
2019-01-22T22:41:15.394Z,94949.00
2019-01-22T22:46:18.596Z,94937.00
2019-01-22T22:51:24.751Z,94937.00
2019-01-22T22:56:27.739Z,94931.00
2019-01-22T23:01:36.992Z,94930.00
2019-01-22T23:06:41.397Z,94911.00
2019-01-22T23:11:44.233Z,94899.00
2019-01-22T23:16:48.163Z,94903.00
2019-01-22T23:21:50.947Z,94899.00
2019-01-22T23:27:11.621Z,94897.00
2019-01-22T23:32:16.162Z,94901.00
2019-01-22T23:37:21.302Z,94889.00
2019-01-22T23:42:24.433Z,94884.00
2019-01-22T23:47:28.183Z,94892.00
2019-01-22T23:52:31.095Z,94875.00
2019-01-22T23:57:41.067Z,94869.00
